createdAt,value
2022-09-26T00:01:34.972Z,3.60
2022-09-26T00:04:03.084Z,3.53
2022-09-26T00:06:29.662Z,3.53
2022-09-26T00:08:56.503Z,4.10
2022-09-26T00:11:25.277Z,3.72
2022-09-26T00:13:53.498Z,4.45
2022-09-26T00:16:20.528Z,4.25
2022-09-26T00:18:51.048Z,4.05
2022-09-26T00:21:18.218Z,3.17
2022-09-26T00:23:45.234Z,3.70
2022-09-26T00:26:12.613Z,3.60
2022-09-26T00:28:39.641Z,2.97
2022-09-26T00:31:08.313Z,2.70
2022-09-26T00:33:35.634Z,2.88
2022-09-26T00:36:02.863Z,2.78
2022-09-26T00:38:29.482Z,2.30
2022-09-26T00:40:56.159Z,2.55
2022-09-26T00:43:36.257Z,2.20
2022-09-26T00:46:02.980Z,2.25
2022-09-26T00:48:30.448Z,2.45
2022-09-26T00:50:57.386Z,2.28
2022-09-26T00:53:25.949Z,2.25
2022-09-26T00:55:58.119Z,2.30
2022-09-26T00:58:27.275Z,2.45
2022-09-26T01:00:55.163Z,2.75
2022-09-26T01:03:23.197Z,2.80
2022-09-26T01:05:50.065Z,2.97
2022-09-26T01:08:19.829Z,3.08
2022-09-26T01:10:46.401Z,2.80
2022-09-26T01:13:13.334Z,3.33
2022-09-26T01:15:40.046Z,2.92
2022-09-26T01:18:07.674Z,2.97
2022-09-26T01:20:37.173Z,2.90
2022-09-26T01:23:03.856Z,2.97
2022-09-26T01:25:31.011Z,2.70
2022-09-26T01:27:57.983Z,2.88
2022-09-26T01:30:28.381Z,2.85
2022-09-26T01:32:58.214Z,2.65
2022-09-26T01:35:34.505Z,3.33
2022-09-26T01:38:01.147Z,2.50
2022-09-26T01:40:28.230Z,2.60
2022-09-26T01:43:05.971Z,2.35
2022-09-26T01:45:51.691Z,2.40
2022-09-26T01:48:20.584Z,2.13
2022-09-26T01:50:53.150Z,2.35
2022-09-26T01:53:22.027Z,2.00
2022-09-26T01:55:54.568Z,2.03
2022-09-26T01:58:33.472Z,2.08
2022-09-26T02:01:02.480Z,2.40
2022-09-26T02:03:31.710Z,2.13
2022-09-26T02:06:00.465Z,2.10
2022-09-26T02:08:33.255Z,2.35
2022-09-26T02:11:08.866Z,2.30
2022-09-26T02:13:36.743Z,2.47
2022-09-26T02:16:09.314Z,1.98
2022-09-26T02:18:40.038Z,2.05
2022-09-26T02:21:15.993Z,2.33
2022-09-26T02:23:42.641Z,2.88
2022-09-26T02:26:09.764Z,3.33
2022-09-26T02:28:36.444Z,3.20
2022-09-26T02:31:05.994Z,3.42
2022-09-26T02:33:32.667Z,3.70
2022-09-26T02:36:00.048Z,4.40
2022-09-26T02:38:31.328Z,4.05
2022-09-26T02:41:29.096Z,4.55
2022-09-26T02:44:07.968Z,3.90
2022-09-26T02:46:54.082Z,3.95
2022-09-26T02:49:35.492Z,4.30
2022-09-26T02:52:12.053Z,4.10
2022-09-26T02:54:39.619Z,4.30
2022-09-26T02:57:14.492Z,4.90
2022-09-26T02:59:57.756Z,4.35
2022-09-26T03:02:45.325Z,4.55
2022-09-26T03:05:20.716Z,5.18
2022-09-26T03:07:59.597Z,4.07
2022-09-26T03:10:28.952Z,4.70
2022-09-26T03:12:57.735Z,4.70
2022-09-26T03:15:25.533Z,4.00
2022-09-26T03:17:54.070Z,4.25
2022-09-26T03:20:22.475Z,3.80
2022-09-26T03:22:51.776Z,3.90
2022-09-26T03:25:20.067Z,3.80
2022-09-26T03:27:57.202Z,3.42
2022-09-26T03:30:24.419Z,3.72
2022-09-26T03:33:17.032Z,3.65
2022-09-26T03:35:43.672Z,3.80
2022-09-26T03:38:14.213Z,3.67
2022-09-26T03:40:47.080Z,4.45
2022-09-26T03:43:52.626Z,3.97
2022-09-26T03:46:19.567Z,4.20
2022-09-26T03:48:46.291Z,4.43
2022-09-26T03:51:13.924Z,4.07
2022-09-26T03:53:41.959Z,4.53
2022-09-26T03:56:13.603Z,4.70
2022-09-26T03:58:41.816Z,4.72
2022-09-26T04:01:10.564Z,4.63
2022-09-26T04:03:39.563Z,4.53
2022-09-26T04:06:08.624Z,3.72
2022-09-26T04:08:39.349Z,4.15
2022-09-26T04:11:07.627Z,4.60
2022-09-26T04:13:50.800Z,4.40
2022-09-26T04:16:20.280Z,4.32
2022-09-26T04:18:57.328Z,4.20
2022-09-26T04:21:27.098Z,4.03
2022-09-26T04:23:54.219Z,4.45
2022-09-26T04:26:23.776Z,4.25
2022-09-26T04:28:54.949Z,4.88
2022-09-26T04:31:24.068Z,4.90
2022-09-26T04:33:56.970Z,4.43
2022-09-26T04:36:23.698Z,4.30
2022-09-26T04:38:50.270Z,4.80
2022-09-26T04:41:18.801Z,4.90
2022-09-26T04:43:47.581Z,4.97
2022-09-26T04:46:21.663Z,5.35
2022-09-26T04:48:51.479Z,5.07
2022-09-26T04:51:20.998Z,5.40
2022-09-26T04:53:50.534Z,5.20
2022-09-26T04:56:21.505Z,5.90
2022-09-26T04:58:48.520Z,5.65
2022-09-26T05:01:17.162Z,5.10
2022-09-26T05:04:01.778Z,5.60
2022-09-26T05:06:30.925Z,5.55
2022-09-26T05:08:59.895Z,6.03
2022-09-26T05:11:39.350Z,5.88
2022-09-26T05:14:08.891Z,5.93
2022-09-26T05:16:37.142Z,5.88
2022-09-26T05:19:04.368Z,5.85
2022-09-26T05:21:33.364Z,5.43
2022-09-26T05:24:18.782Z,5.13
2022-09-26T05:26:47.563Z,5.40
2022-09-26T05:29:14.519Z,5.53
2022-09-26T05:31:49.177Z,5.55
2022-09-26T05:34:19.868Z,6.00
2022-09-26T05:36:47.184Z,5.63
2022-09-26T05:39:32.598Z,6.32
2022-09-26T05:41:59.529Z,7.22
2022-09-26T05:44:26.646Z,7.40
2022-09-26T05:46:53.458Z,6.35
2022-09-26T05:49:20.195Z,7.50
2022-09-26T05:51:46.918Z,6.68
2022-09-26T05:54:16.753Z,7.10
2022-09-26T05:56:43.389Z,6.35
2022-09-26T05:59:10.194Z,6.63
2022-09-26T06:01:55.689Z,6.22
2022-09-26T06:04:48.073Z,6.32
2022-09-26T06:07:32.561Z,5.85
2022-09-26T06:10:07.163Z,6.25
2022-09-26T06:12:40.470Z,6.05
2022-09-26T06:15:09.568Z,5.68
2022-09-26T06:17:36.460Z,6.40
2022-09-26T06:20:04.022Z,6.65
2022-09-26T06:22:34.021Z,5.32
2022-09-26T06:25:00.778Z,5.78
2022-09-26T06:27:27.438Z,5.35
2022-09-26T06:29:54.136Z,5.05
2022-09-26T06:32:20.793Z,6.05
2022-09-26T06:35:07.356Z,5.80
2022-09-26T06:37:44.526Z,5.45
2022-09-26T06:40:11.688Z,4.72
2022-09-26T06:42:39.045Z,5.05
2022-09-26T06:45:24.736Z,5.03
2022-09-26T06:48:08.551Z,4.63
2022-09-26T06:50:57.124Z,4.72
2022-09-26T06:53:24.663Z,4.70
2022-09-26T06:55:51.355Z,4.57
2022-09-26T06:58:18.272Z,5.00
2022-09-26T07:01:03.524Z,4.28
2022-09-26T07:04:03.389Z,4.40
2022-09-26T07:06:37.333Z,4.43
2022-09-26T07:09:11.244Z,5.35
2022-09-26T07:12:13.699Z,4.90
2022-09-26T07:14:37.865Z,4.93
2022-09-26T07:17:18.341Z,4.97
2022-09-26T07:20:05.676Z,4.30
2022-09-26T07:23:05.324Z,4.55
2022-09-26T07:25:33.369Z,5.07
2022-09-26T07:28:01.375Z,4.50
2022-09-26T07:30:46.340Z,5.10
2022-09-26T07:33:27.154Z,5.40
2022-09-26T07:35:56.795Z,4.80
2022-09-26T07:38:24.178Z,4.50
2022-09-26T07:40:54.822Z,4.75
2022-09-26T07:43:35.679Z,5.15
2022-09-26T07:46:27.390Z,4.82
2022-09-26T07:49:14.915Z,5.50
2022-09-26T07:52:11.291Z,5.22
2022-09-26T07:55:04.646Z,4.82
2022-09-26T07:57:42.889Z,5.53
2022-09-26T08:00:22.949Z,4.40
2022-09-26T08:03:05.116Z,5.20
2022-09-26T08:05:35.610Z,5.00
2022-09-26T08:08:02.895Z,5.05
2022-09-26T08:11:02.814Z,5.80
2022-09-26T08:13:33.429Z,5.10
2022-09-26T08:16:23.049Z,4.68
2022-09-26T08:18:53.311Z,4.93
2022-09-26T08:21:21.060Z,4.50
2022-09-26T08:23:49.890Z,4.35
2022-09-26T08:26:28.389Z,4.07
2022-09-26T08:29:12.477Z,5.30
2022-09-26T08:31:42.428Z,4.07
2022-09-26T08:34:09.182Z,4.22
2022-09-26T08:36:37.125Z,4.43
2022-09-26T08:39:10.840Z,4.35
2022-09-26T08:42:03.516Z,4.00
2022-09-26T08:45:26.422Z,3.30
2022-09-26T08:48:33.132Z,3.17
2022-09-26T08:51:32.795Z,2.95
2022-09-26T08:54:16.905Z,2.50
2022-09-26T08:56:55.454Z,3.17
2022-09-26T08:59:43.502Z,3.25
2022-09-26T09:02:18.447Z,2.78
2022-09-26T09:04:58.413Z,3.00
2022-09-26T09:07:26.545Z,3.10
2022-09-26T09:10:01.475Z,3.25
2022-09-26T09:12:52.297Z,3.75
2022-09-26T09:16:00.048Z,3.72
2022-09-26T09:18:49.796Z,3.55
2022-09-26T09:21:41.859Z,3.13
2022-09-26T09:24:31.811Z,3.67
2022-09-26T09:29:53.409Z,3.38
2022-09-26T09:32:47.041Z,3.47
2022-09-26T09:35:45.212Z,3.30
2022-09-26T09:38:29.273Z,3.67
2022-09-26T09:41:17.223Z,2.90
2022-09-26T09:44:04.173Z,2.65
2022-09-26T09:46:34.546Z,3.05
2022-09-26T09:49:10.235Z,2.97
2022-09-26T09:51:54.765Z,2.60
2022-09-26T09:54:28.571Z,2.88
2022-09-26T09:57:14.022Z,2.85
2022-09-26T09:59:46.708Z,2.92
2022-09-26T10:02:19.394Z,2.85
2022-09-26T10:04:49.153Z,2.65
2022-09-26T10:07:16.557Z,2.72
2022-09-26T10:09:57.014Z,2.88
2022-09-26T10:12:58.785Z,2.95
2022-09-26T10:16:08.105Z,3.00
2022-09-26T10:19:07.416Z,2.95
2022-09-26T10:21:43.372Z,3.03
2022-09-26T10:24:34.356Z,3.05
2022-09-26T10:27:15.195Z,2.50
2022-09-26T10:29:44.069Z,2.88
2022-09-26T10:32:11.264Z,3.20
2022-09-26T10:34:40.804Z,3.78
2022-09-26T10:37:30.008Z,3.10
2022-09-26T10:40:41.138Z,3.20
2022-09-26T10:43:19.296Z,2.70
2022-09-26T10:45:46.070Z,2.83
2022-09-26T10:48:53.771Z,2.53
2022-09-26T10:51:42.569Z,3.08
2022-09-26T10:54:16.372Z,3.35
2022-09-26T10:56:47.158Z,3.10
2022-09-26T10:59:17.223Z,3.03
2022-09-26T11:01:56.575Z,2.75
2022-09-26T11:04:45.581Z,3.25
2022-09-26T11:07:34.842Z,3.10
2022-09-26T11:10:27.870Z,2.83
2022-09-26T11:13:16.133Z,2.88
2022-09-26T11:16:13.607Z,3.00
2022-09-26T11:18:59.785Z,3.03
2022-09-26T11:21:36.779Z,3.00
2022-09-26T11:24:11.305Z,3.20
2022-09-26T11:26:56.671Z,2.80
2022-09-26T11:29:38.575Z,2.70
2022-09-26T11:32:16.096Z,2.47
2022-09-26T11:35:03.712Z,2.85
2022-09-26T11:37:51.152Z,3.20
2022-09-26T11:40:29.900Z,2.47
2022-09-26T11:43:13.533Z,2.90
2022-09-26T11:45:59.675Z,3.08
2022-09-26T11:49:03.581Z,3.08
2022-09-26T11:52:08.538Z,2.70
2022-09-26T11:54:47.742Z,3.25
2022-09-26T11:57:34.106Z,2.50
2022-09-26T12:00:26.506Z,2.70
2022-09-26T12:03:14.050Z,3.22
2022-09-26T12:05:56.343Z,3.00
2022-09-26T12:08:23.230Z,2.70
2022-09-26T12:10:49.936Z,3.05
2022-09-26T12:13:34.330Z,2.72
2022-09-26T12:16:22.020Z,2.92
2022-09-26T12:19:05.284Z,2.40
2022-09-26T12:21:38.661Z,2.47
2022-09-26T12:24:11.571Z,2.28
2022-09-26T12:26:53.945Z,2.58
2022-09-26T12:29:27.494Z,2.50
2022-09-26T12:32:14.483Z,2.00
2022-09-26T12:34:53.184Z,1.80
2022-09-26T12:37:23.396Z,1.85
2022-09-26T12:39:53.130Z,1.80
2022-09-26T12:42:38.288Z,1.40
2022-09-26T12:45:15.265Z,1.60
2022-09-26T12:47:52.331Z,1.50
2022-09-26T12:50:19.001Z,1.70
2022-09-26T12:52:54.404Z,1.63
2022-09-26T12:55:20.958Z,1.10
2022-09-26T12:57:57.220Z,1.50
2022-09-26T13:00:24.946Z,1.58
2022-09-26T13:03:00.809Z,1.60
2022-09-26T13:05:31.114Z,1.40
2022-09-26T13:08:21.128Z,1.95
2022-09-26T13:11:06.535Z,2.20
2022-09-26T13:13:46.182Z,1.73
2022-09-26T13:16:39.509Z,1.40
2022-09-26T13:19:38.716Z,1.80
2022-09-26T13:22:12.583Z,1.85
2022-09-26T13:24:50.125Z,1.33
2022-09-26T13:27:20.197Z,1.17
2022-09-26T13:29:50.048Z,1.20
2022-09-26T13:32:23.057Z,1.65
2022-09-26T13:34:52.794Z,2.00
2022-09-26T13:37:32.728Z,1.83
2022-09-26T13:40:02.914Z,2.00
2022-09-26T13:42:46.127Z,1.48
2022-09-26T13:45:13.705Z,1.80
2022-09-26T13:47:40.904Z,1.77
2022-09-26T13:50:24.305Z,1.83
2022-09-26T13:53:00.991Z,1.63
2022-09-26T13:55:30.157Z,1.90
2022-09-26T13:58:03.249Z,1.50
2022-09-26T14:00:30.559Z,1.70
2022-09-26T14:03:16.703Z,1.92
2022-09-26T14:05:44.140Z,1.63
2022-09-26T14:08:48.113Z,1.25
2022-09-26T14:11:30.831Z,1.67
2022-09-26T14:14:19.268Z,1.15
2022-09-26T14:16:51.002Z,1.30
2022-09-26T14:19:20.626Z,1.15
2022-09-26T14:22:07.330Z,0.90
2022-09-26T14:24:38.152Z,0.80
2022-09-26T14:27:11.138Z,0.77
2022-09-26T14:29:46.830Z,0.90
2022-09-26T14:32:18.648Z,1.10
2022-09-26T14:34:46.663Z,0.98
2022-09-26T14:37:25.457Z,0.93
2022-09-26T14:40:07.630Z,1.20
2022-09-26T14:42:43.829Z,0.88
2022-09-26T14:45:17.300Z,1.10
2022-09-26T14:47:48.289Z,0.90
2022-09-26T14:50:21.636Z,0.90
2022-09-26T14:52:55.928Z,0.85
2022-09-26T14:55:23.597Z,1.20
2022-09-26T14:57:50.712Z,1.10
2022-09-26T15:00:35.415Z,1.00
2022-09-26T15:03:05.337Z,1.13
2022-09-26T15:05:33.242Z,0.88
2022-09-26T15:08:01.243Z,1.17
2022-09-26T15:10:41.676Z,1.40
2022-09-26T15:13:17.281Z,1.02
2022-09-26T15:15:58.610Z,1.30
2022-09-26T15:18:39.568Z,1.63
2022-09-26T15:21:12.525Z,2.00
2022-09-26T15:23:47.024Z,2.00
2022-09-26T15:26:15.672Z,1.50
2022-09-26T15:28:42.461Z,1.85
2022-09-26T15:31:20.410Z,1.83
2022-09-26T15:33:50.620Z,1.88
2022-09-26T15:36:17.808Z,1.83
2022-09-26T15:38:47.404Z,1.80
2022-09-26T15:41:16.158Z,1.60
2022-09-26T15:43:42.840Z,2.08
2022-09-26T15:46:23.565Z,1.80
2022-09-26T15:48:51.869Z,1.90
2022-09-26T15:51:27.563Z,1.73
2022-09-26T15:53:59.266Z,1.50
2022-09-26T15:56:32.781Z,1.42
2022-09-26T15:59:02.993Z,2.13
2022-09-26T16:01:31.198Z,2.50
2022-09-26T16:03:58.518Z,2.40
2022-09-26T16:06:35.621Z,1.50
2022-09-26T16:09:11.536Z,1.73
2022-09-26T16:11:47.739Z,1.60
2022-09-26T16:14:25.742Z,1.67
2022-09-26T16:17:01.805Z,1.58
2022-09-26T16:19:36.053Z,1.75
2022-09-26T16:22:23.492Z,1.50
2022-09-26T16:24:51.667Z,1.70
2022-09-26T16:27:26.031Z,1.70
2022-09-26T16:29:53.459Z,1.70
2022-09-26T16:32:22.688Z,1.40
2022-09-26T16:35:10.480Z,1.85
2022-09-26T16:37:37.853Z,1.40
2022-09-26T16:40:05.043Z,1.88
2022-09-26T16:42:32.917Z,1.35
2022-09-26T16:45:02.996Z,1.60
2022-09-26T16:47:34.784Z,1.40
2022-09-26T16:50:20.364Z,1.52
2022-09-26T16:52:50.717Z,1.40
2022-09-26T16:55:17.713Z,1.42
2022-09-26T16:58:01.841Z,1.77
2022-09-26T17:00:52.160Z,1.70
2022-09-26T17:03:21.578Z,1.50
2022-09-26T17:05:48.906Z,1.70
2022-09-26T17:08:17.388Z,1.52
2022-09-26T17:10:45.141Z,1.80
2022-09-26T17:13:21.703Z,1.70
2022-09-26T17:15:49.825Z,1.40
2022-09-26T17:18:19.514Z,1.52
2022-09-26T17:20:46.294Z,1.40
2022-09-26T17:23:35.285Z,1.60
2022-09-26T17:25:59.858Z,1.92
2022-09-26T17:28:30.334Z,1.40
2022-09-26T17:30:58.003Z,1.60
2022-09-26T17:33:28.056Z,1.40
2022-09-26T17:35:55.220Z,1.60
2022-09-26T17:38:21.938Z,1.50
2022-09-26T17:40:48.952Z,1.73
2022-09-26T17:43:15.624Z,1.70
2022-09-26T17:45:46.656Z,1.80
2022-09-26T17:48:24.143Z,2.10
2022-09-26T17:50:50.899Z,1.75
2022-09-26T17:53:21.052Z,1.70
2022-09-26T17:55:51.882Z,1.73
2022-09-26T17:58:19.030Z,1.70
2022-09-26T18:00:47.642Z,2.38
2022-09-26T18:03:19.580Z,1.60
2022-09-26T18:05:46.394Z,1.80
2022-09-26T18:08:13.028Z,1.33
2022-09-26T18:10:42.270Z,1.70
2022-09-26T18:13:13.532Z,1.60
2022-09-26T18:15:41.139Z,1.73
2022-09-26T18:18:16.279Z,1.67
2022-09-26T18:20:43.278Z,1.60
2022-09-26T18:23:13.827Z,1.45
2022-09-26T18:25:40.488Z,1.60
2022-09-26T18:28:12.744Z,1.65
2022-09-26T18:30:40.113Z,1.75
2022-09-26T18:33:07.120Z,1.75
2022-09-26T18:35:33.721Z,1.90
2022-09-26T18:38:00.303Z,1.52
2022-09-26T18:40:28.496Z,1.70
2022-09-26T18:42:56.639Z,1.70
2022-09-26T18:45:28.114Z,1.80
2022-09-26T18:47:55.233Z,2.17
2022-09-26T18:50:24.441Z,1.50
2022-09-26T18:52:52.137Z,1.70
2022-09-26T18:55:38.657Z,1.83
2022-09-26T18:58:24.029Z,1.65
2022-09-26T19:00:59.051Z,1.70
2022-09-26T19:03:30.833Z,2.00
2022-09-26T19:06:01.683Z,1.58
2022-09-26T19:08:28.362Z,1.90
2022-09-26T19:10:55.325Z,1.52
2022-09-26T19:13:25.377Z,1.30
2022-09-26T19:15:54.201Z,1.90
2022-09-26T19:18:20.845Z,1.40
2022-09-26T19:20:47.586Z,1.40
2022-09-26T19:23:14.393Z,1.40
2022-09-26T19:25:41.163Z,1.83
2022-09-26T19:28:12.761Z,1.70
2022-09-26T19:30:39.891Z,1.40
2022-09-26T19:33:06.604Z,1.50
2022-09-26T19:35:34.942Z,1.63
2022-09-26T19:38:02.827Z,1.40
2022-09-26T19:40:29.736Z,1.50
2022-09-26T19:42:57.326Z,1.48
2022-09-26T19:45:24.202Z,1.33
2022-09-26T19:47:52.231Z,1.60
2022-09-26T19:50:23.274Z,1.70
2022-09-26T19:52:51.280Z,1.60
2022-09-26T19:55:20.700Z,1.50
2022-09-26T19:57:47.418Z,1.83
2022-09-26T20:00:14.360Z,1.70
2022-09-26T20:02:41.217Z,1.83
2022-09-26T20:05:17.316Z,1.50
2022-09-26T20:07:46.399Z,1.35
2022-09-26T20:10:15.821Z,1.20
2022-09-26T20:12:43.029Z,1.73
2022-09-26T20:15:11.124Z,1.35
2022-09-26T20:17:37.932Z,1.48
2022-09-26T20:20:05.224Z,1.50
2022-09-26T20:22:32.298Z,1.45
2022-09-26T20:24:58.937Z,1.95
2022-09-26T20:27:27.907Z,1.60
2022-09-26T20:30:13.806Z,1.30
2022-09-26T20:32:43.327Z,1.38
2022-09-26T20:35:13.433Z,1.70
2022-09-26T20:37:40.589Z,1.40
2022-09-26T20:40:13.457Z,1.40
2022-09-26T20:42:40.859Z,1.30
2022-09-26T20:45:15.054Z,1.48
2022-09-26T20:47:42.872Z,1.60
2022-09-26T20:50:13.819Z,1.13
2022-09-26T20:52:42.607Z,1.42
2022-09-26T20:55:16.237Z,1.38
2022-09-26T20:57:43.066Z,1.40
2022-09-26T21:00:16.898Z,1.23
2022-09-26T21:02:44.553Z,1.17
2022-09-26T21:05:20.016Z,1.13
2022-09-26T21:07:46.998Z,1.30
2022-09-26T21:10:32.507Z,1.10
2022-09-26T21:12:59.682Z,1.10
2022-09-26T21:15:27.827Z,1.35
2022-09-26T21:17:54.589Z,1.20
2022-09-26T21:20:29.025Z,1.15
2022-09-26T21:23:08.867Z,1.30
2022-09-26T21:25:35.665Z,1.60
2022-09-26T21:28:06.449Z,1.20
2022-09-26T21:30:33.606Z,1.70
2022-09-26T21:33:00.383Z,1.40
2022-09-26T21:35:28.848Z,1.50
2022-09-26T21:37:56.606Z,1.38
2022-09-26T21:40:26.165Z,1.63
2022-09-26T21:42:54.853Z,1.30
2022-09-26T21:45:27.128Z,1.42
2022-09-26T21:47:57.366Z,1.50
2022-09-26T21:50:25.660Z,1.23
2022-09-26T21:52:55.309Z,1.40
2022-09-26T21:55:25.121Z,1.40
2022-09-26T21:57:53.882Z,1.20
2022-09-26T22:00:20.520Z,1.45
2022-09-26T22:02:47.237Z,1.27
2022-09-26T22:05:16.687Z,1.17
2022-09-26T22:07:45.841Z,1.33
2022-09-26T22:10:12.654Z,1.67
2022-09-26T22:12:39.232Z,1.33
2022-09-26T22:15:07.889Z,1.60
2022-09-26T22:17:34.526Z,1.45
2022-09-26T22:20:01.327Z,1.42
2022-09-26T22:22:28.045Z,1.52
2022-09-26T22:24:54.670Z,1.20
2022-09-26T22:27:21.311Z,1.40
2022-09-26T22:29:48.435Z,1.20
2022-09-26T22:32:15.129Z,1.35
2022-09-26T22:34:41.770Z,1.20
2022-09-26T22:37:08.408Z,1.30
2022-09-26T22:39:35.048Z,1.50
2022-09-26T22:42:01.763Z,1.63
2022-09-26T22:44:28.319Z,1.45
2022-09-26T22:46:55.015Z,1.38
2022-09-26T22:49:21.614Z,1.35
2022-09-26T22:51:48.273Z,1.35
2022-09-26T22:54:15.015Z,1.17
2022-09-26T22:56:41.647Z,0.88
2022-09-26T22:59:09.374Z,1.15
2022-09-26T23:01:36.115Z,1.20
2022-09-26T23:04:03.036Z,1.05
2022-09-26T23:06:30.532Z,1.00
2022-09-26T23:08:57.259Z,0.90
2022-09-26T23:11:24.338Z,1.42
2022-09-26T23:13:52.048Z,0.98
2022-09-26T23:16:23.548Z,0.90
2022-09-26T23:18:50.801Z,0.80
2022-09-26T23:21:18.703Z,1.10
2022-09-26T23:23:46.344Z,0.85
2022-09-26T23:26:23.365Z,0.70
2022-09-26T23:28:50.808Z,0.90
2022-09-26T23:31:17.735Z,1.20
2022-09-26T23:33:44.442Z,0.80
2022-09-26T23:36:11.141Z,1.00
2022-09-26T23:38:38.254Z,0.80
2022-09-26T23:41:07.948Z,0.90
2022-09-26T23:43:34.794Z,0.80
2022-09-26T23:46:01.757Z,0.80
2022-09-26T23:48:28.461Z,1.00
2022-09-26T23:50:55.301Z,0.95
2022-09-26T23:53:22.256Z,0.90
2022-09-26T23:55:48.944Z,1.00
2022-09-26T23:58:15.541Z,0.70
